createdAt,value
2023-01-13T00:01:26.492Z,2.10
2023-01-13T00:03:56.604Z,0.90
2023-01-13T00:06:27.005Z,1.17
2023-01-13T00:08:56.441Z,1.47
2023-01-13T00:11:26.631Z,0.77
2023-01-13T00:13:55.747Z,2.70
2023-01-13T00:16:33.424Z,7.30
2023-01-13T00:19:03.867Z,2.10
2023-01-13T00:21:32.791Z,4.07
2023-01-13T00:24:01.366Z,0.70
2023-01-13T00:26:34.008Z,4.70
2023-01-13T00:29:03.058Z,4.03
2023-01-13T00:31:31.996Z,1.00
2023-01-13T00:34:03.339Z,5.60
2023-01-13T00:36:32.403Z,1.07
2023-01-13T00:39:01.119Z,1.70
2023-01-13T00:41:49.919Z,1.60
2023-01-13T00:44:17.473Z,1.00
2023-01-13T00:46:48.145Z,0.80
2023-01-13T00:49:20.311Z,2.93
2023-01-13T00:51:48.988Z,0.80
2023-01-13T00:54:17.674Z,0.60
2023-01-13T00:56:46.371Z,0.90
2023-01-13T00:59:15.649Z,2.00
2023-01-13T01:01:44.925Z,2.20
2023-01-13T01:04:13.713Z,2.47
2023-01-13T01:06:43.759Z,1.23
2023-01-13T01:09:15.159Z,0.93
2023-01-13T01:11:47.194Z,1.10
2023-01-13T01:14:16.824Z,1.00
2023-01-13T01:16:45.855Z,3.67
2023-01-13T01:19:14.768Z,0.90
2023-01-13T01:21:44.875Z,1.97
2023-01-13T01:24:13.489Z,1.80
2023-01-13T01:26:42.226Z,0.60
2023-01-13T01:29:14.214Z,0.70
2023-01-13T01:31:47.890Z,4.00
2023-01-13T01:34:16.787Z,1.57
2023-01-13T01:36:47.179Z,7.30
2023-01-13T01:39:16.089Z,0.80
2023-01-13T01:42:04.983Z,2.50
2023-01-13T01:45:00.929Z,1.13
2023-01-13T01:47:30.759Z,1.00
2023-01-13T01:50:00.719Z,2.20
2023-01-13T01:52:33.841Z,1.50
2023-01-13T01:55:06.347Z,3.63
2023-01-13T01:57:38.800Z,2.40
2023-01-13T02:00:09.014Z,1.27
2023-01-13T02:02:38.196Z,3.60
2023-01-13T02:05:07.865Z,1.17
2023-01-13T02:07:39.295Z,5.13
2023-01-13T02:10:11.086Z,2.40
2023-01-13T02:15:47.504Z,3.37
2023-01-13T02:18:29.881Z,3.63
2023-01-13T02:21:10.723Z,0.83
2023-01-13T02:24:32.966Z,1.43
2023-01-13T02:27:33.673Z,4.17
2023-01-13T02:30:36.159Z,3.20
2023-01-13T02:33:15.723Z,3.10
2023-01-13T02:35:50.707Z,18.33
2023-01-13T02:38:22.686Z,2.73
2023-01-13T02:40:58.911Z,0.90
2023-01-13T02:43:52.696Z,8.90
2023-01-13T02:46:28.626Z,4.97
2023-01-13T02:48:59.400Z,6.60
2023-01-13T02:51:30.337Z,7.17
2023-01-13T02:54:02.489Z,6.30
2023-01-13T02:56:35.219Z,8.50
2023-01-13T02:59:04.315Z,6.57
2023-01-13T03:01:34.241Z,4.90
2023-01-13T03:04:13.048Z,5.93
2023-01-13T03:06:50.002Z,5.10
2023-01-13T03:09:21.344Z,5.27
2023-01-13T03:11:55.663Z,6.70
2023-01-13T03:14:29.002Z,5.90
2023-01-13T03:17:12.711Z,6.50
2023-01-13T03:19:46.480Z,3.90
2023-01-13T03:22:22.519Z,3.37
2023-01-13T03:24:54.655Z,3.70
2023-01-13T03:27:27.768Z,3.33
2023-01-13T03:29:59.992Z,2.23
2023-01-13T03:32:33.551Z,1.93
2023-01-13T03:35:06.221Z,1.00
2023-01-13T03:37:45.557Z,3.73
2023-01-13T03:40:20.645Z,1.00
2023-01-13T03:43:06.298Z,2.20
2023-01-13T03:45:37.128Z,3.43
2023-01-13T03:48:11.103Z,1.93
2023-01-13T03:50:42.981Z,1.03
2023-01-13T03:53:14.110Z,1.33
2023-01-13T03:55:47.447Z,0.67
2023-01-13T03:58:20.109Z,6.30
2023-01-13T04:00:52.552Z,2.47
2023-01-13T04:03:27.419Z,3.63
2023-01-13T04:06:01.233Z,0.60
2023-01-13T04:08:30.222Z,2.20
2023-01-13T04:11:07.367Z,0.50
2023-01-13T04:13:39.035Z,1.53
2023-01-13T04:16:08.315Z,0.90
2023-01-13T04:18:39.861Z,2.00
2023-01-13T04:21:09.500Z,2.57
2023-01-13T04:23:37.994Z,4.00
2023-01-13T04:26:06.861Z,1.60
2023-01-13T04:28:42.205Z,12.07
2023-01-13T04:32:07.003Z,2.13
2023-01-13T04:34:36.948Z,3.30
2023-01-13T04:39:58.659Z,2.77
2023-01-13T04:42:28.943Z,3.23
2023-01-13T04:44:57.513Z,2.00
2023-01-13T04:47:26.468Z,4.00
2023-01-13T04:49:56.675Z,2.20
2023-01-13T04:52:25.450Z,1.60
2023-01-13T04:54:54.184Z,1.43
2023-01-13T04:57:35.519Z,0.60
2023-01-13T05:00:04.450Z,0.90
2023-01-13T05:02:33.265Z,6.57
2023-01-13T05:05:03.031Z,2.77
2023-01-13T05:07:31.791Z,1.17
2023-01-13T05:10:00.940Z,0.60
2023-01-13T05:12:47.282Z,1.17
2023-01-13T05:15:34.766Z,1.30
2023-01-13T05:18:03.837Z,1.13
2023-01-13T05:20:33.359Z,3.20
2023-01-13T05:23:19.561Z,1.43
2023-01-13T05:25:49.184Z,1.00
2023-01-13T05:28:18.184Z,0.70
2023-01-13T05:30:49.642Z,0.70
2023-01-13T05:33:20.531Z,3.20
2023-01-13T05:35:51.349Z,0.80
2023-01-13T05:38:20.083Z,5.53
2023-01-13T05:41:06.205Z,3.27
2023-01-13T05:43:35.127Z,3.00
2023-01-13T05:46:05.762Z,4.83
2023-01-13T05:48:35.855Z,6.27
2023-01-13T05:51:08.113Z,1.43
2023-01-13T05:53:36.658Z,0.97
2023-01-13T05:56:05.918Z,1.50
2023-01-13T05:58:36.386Z,1.20
2023-01-13T06:01:07.535Z,1.37
2023-01-13T06:03:36.647Z,4.73
2023-01-13T06:06:09.191Z,0.63
2023-01-13T06:08:39.740Z,3.40
2023-01-13T06:11:08.952Z,2.50
2023-01-13T06:13:37.683Z,11.00
2023-01-13T06:16:06.885Z,1.37
2023-01-13T06:18:49.271Z,0.93
2023-01-13T06:21:19.435Z,1.27
2023-01-13T06:23:48.046Z,1.00
2023-01-13T06:26:19.293Z,4.83
2023-01-13T06:28:50.315Z,9.53
2023-01-13T06:31:19.983Z,4.10
2023-01-13T06:33:52.706Z,5.10
2023-01-13T06:36:32.646Z,0.63
2023-01-13T06:39:22.183Z,1.00
2023-01-13T06:42:09.869Z,0.90
2023-01-13T06:44:38.523Z,1.23
2023-01-13T06:47:08.320Z,2.63
2023-01-13T06:49:37.310Z,1.33
2023-01-13T06:52:07.648Z,2.30
2023-01-13T06:54:36.487Z,4.00
2023-01-13T06:57:05.654Z,4.73
2023-01-13T06:59:35.672Z,17.20
2023-01-13T07:02:05.094Z,6.23
2023-01-13T07:04:33.906Z,1.73
2023-01-13T07:07:02.463Z,9.47
2023-01-13T07:09:32.378Z,3.83
2023-01-13T07:12:00.826Z,1.90
2023-01-13T07:14:48.882Z,5.40
2023-01-13T07:17:25.441Z,3.83
2023-01-13T07:19:55.029Z,3.17
2023-01-13T07:22:24.797Z,3.47
2023-01-13T07:24:55.029Z,2.77
2023-01-13T07:27:26.531Z,1.50
2023-01-13T07:29:55.329Z,3.20
2023-01-13T07:32:24.105Z,3.70
2023-01-13T07:34:52.645Z,5.07
2023-01-13T07:37:21.330Z,7.30
2023-01-13T07:39:50.379Z,5.03
2023-01-13T07:42:40.650Z,5.77
2023-01-13T07:45:12.395Z,2.77
2023-01-13T07:47:41.585Z,3.43
2023-01-13T07:50:11.186Z,4.93
2023-01-13T07:52:39.897Z,2.70
2023-01-13T07:55:09.387Z,3.43
2023-01-13T07:57:39.431Z,4.07
2023-01-13T08:00:11.401Z,2.10
2023-01-13T08:02:41.726Z,5.10
2023-01-13T08:05:11.692Z,0.60
2023-01-13T08:07:41.246Z,1.17
2023-01-13T08:10:11.382Z,0.80
2023-01-13T08:12:58.828Z,1.10
2023-01-13T08:15:30.016Z,6.73
2023-01-13T08:18:01.498Z,2.50
2023-01-13T08:20:30.065Z,7.30
2023-01-13T08:22:58.736Z,5.00
2023-01-13T08:25:27.788Z,2.43
2023-01-13T08:28:00.363Z,1.87
2023-01-13T08:30:29.537Z,2.30
2023-01-13T08:32:58.063Z,0.63
2023-01-13T08:35:26.994Z,1.17
2023-01-13T08:37:55.883Z,0.70
2023-01-13T08:40:49.441Z,2.00
2023-01-13T08:43:19.422Z,1.50
2023-01-13T08:45:54.161Z,1.10
2023-01-13T08:48:23.289Z,2.37
2023-01-13T08:50:52.202Z,2.07
2023-01-13T08:53:20.998Z,3.13
2023-01-13T08:55:49.618Z,0.70
2023-01-13T08:58:19.574Z,1.37
2023-01-13T09:00:50.781Z,1.27
2023-01-13T09:03:19.447Z,0.80
2023-01-13T09:05:48.259Z,0.87
2023-01-13T09:08:16.616Z,1.37
2023-01-13T09:10:45.382Z,1.33
2023-01-13T09:13:13.847Z,1.43
2023-01-13T09:15:46.793Z,1.23
2023-01-13T09:18:15.545Z,2.07
2023-01-13T09:20:44.791Z,1.00
2023-01-13T09:23:15.349Z,3.87
2023-01-13T09:25:44.084Z,4.30
2023-01-13T09:28:13.036Z,1.53
2023-01-13T09:30:44.434Z,11.63
2023-01-13T09:36:27.868Z,2.10
2023-01-13T09:38:56.596Z,1.60
2023-01-13T09:41:44.478Z,2.40
2023-01-13T09:44:18.157Z,1.30
2023-01-13T09:46:52.727Z,2.33
2023-01-13T09:49:24.227Z,2.37
2023-01-13T09:51:56.293Z,2.20
2023-01-13T09:54:32.502Z,7.53
2023-01-13T09:57:02.035Z,1.53
2023-01-13T09:59:36.651Z,3.63
2023-01-13T10:02:20.147Z,2.40
2023-01-13T10:05:04.403Z,2.53
2023-01-13T10:07:35.074Z,3.87
2023-01-13T10:10:04.690Z,2.17
2023-01-13T10:12:50.944Z,4.67
2023-01-13T10:15:27.832Z,3.27
2023-01-13T10:18:01.376Z,0.87
2023-01-13T10:20:33.710Z,1.43
2023-01-13T10:23:09.229Z,6.23
2023-01-13T10:25:50.966Z,1.87
2023-01-13T10:28:20.274Z,2.10
2023-01-13T10:30:49.558Z,1.87
2023-01-13T10:33:45.026Z,3.40
2023-01-13T10:36:17.970Z,1.00
2023-01-13T10:38:48.875Z,4.13
2023-01-13T10:41:25.741Z,1.90
2023-01-13T10:44:04.344Z,5.73
2023-01-13T10:46:55.868Z,5.47
2023-01-13T10:49:39.083Z,1.93
2023-01-13T10:52:28.656Z,1.07
2023-01-13T10:54:57.704Z,0.87
2023-01-13T10:57:28.779Z,1.27
2023-01-13T10:59:57.910Z,1.23
2023-01-13T11:02:30.847Z,3.63
2023-01-13T11:05:04.715Z,1.43
2023-01-13T11:07:36.038Z,1.00
2023-01-13T11:10:12.318Z,1.37
2023-01-13T11:12:45.444Z,2.37
2023-01-13T11:15:20.191Z,0.83
2023-01-13T11:17:52.085Z,1.10
2023-01-13T11:20:30.051Z,2.30
2023-01-13T11:23:00.362Z,3.63
2023-01-13T11:25:34.055Z,6.30
2023-01-13T11:28:05.802Z,0.70
2023-01-13T11:30:40.087Z,0.67
2023-01-13T11:33:37.252Z,1.43
2023-01-13T11:36:12.891Z,1.57
2023-01-13T11:38:50.655Z,1.10
2023-01-13T11:41:26.658Z,4.63
2023-01-13T11:43:59.373Z,4.20
2023-01-13T11:46:29.375Z,4.67
2023-01-13T11:48:58.547Z,2.40
2023-01-13T11:51:37.074Z,1.00
2023-01-13T11:54:36.621Z,2.90
2023-01-13T11:57:25.322Z,1.30
2023-01-13T12:00:11.103Z,2.37
2023-01-13T12:02:52.579Z,1.00
2023-01-13T12:05:25.601Z,1.03
2023-01-13T12:08:03.674Z,1.63
2023-01-13T12:10:44.566Z,1.40
2023-01-13T12:13:25.469Z,1.63
2023-01-13T12:16:10.672Z,1.50
2023-01-13T12:19:13.009Z,6.13
2023-01-13T12:21:54.103Z,1.23
2023-01-13T12:24:31.262Z,6.53
2023-01-13T12:27:02.328Z,1.57
2023-01-13T12:29:32.884Z,7.60
2023-01-13T12:32:03.565Z,1.00
2023-01-13T12:34:44.044Z,1.70
2023-01-13T12:37:18.540Z,1.80
2023-01-13T12:39:57.085Z,1.07
2023-01-13T12:42:46.869Z,0.80
2023-01-13T12:45:27.226Z,3.80
2023-01-13T12:47:56.568Z,3.43
2023-01-13T12:50:44.340Z,2.13
2023-01-13T12:53:36.937Z,44.53
2023-01-13T12:56:36.329Z,1.23
2023-01-13T12:59:50.225Z,1.70
2023-01-13T13:02:28.735Z,0.70
2023-01-13T13:04:58.698Z,0.60
2023-01-13T13:07:35.037Z,1.60
2023-01-13T13:10:07.530Z,6.47
2023-01-13T13:13:16.418Z,2.20
2023-01-13T13:15:48.229Z,3.80
2023-01-13T13:18:28.902Z,1.70
2023-01-13T13:21:04.573Z,6.77
2023-01-13T13:23:48.337Z,1.57
2023-01-13T13:26:42.737Z,2.30
2023-01-13T13:29:25.967Z,1.27
2023-01-13T13:32:19.113Z,1.33
2023-01-13T13:34:51.608Z,2.30
2023-01-13T13:37:56.840Z,0.97
2023-01-13T13:40:43.925Z,1.37
2023-01-13T13:43:32.777Z,3.13
2023-01-13T13:49:12.452Z,1.30
2023-01-13T13:51:45.553Z,2.50
2023-01-13T13:54:17.719Z,1.33
2023-01-13T13:56:47.470Z,1.03
2023-01-13T13:59:20.318Z,1.47
2023-01-13T14:01:53.828Z,2.47
2023-01-13T14:04:28.615Z,19.87
2023-01-13T14:07:00.965Z,39.67
2023-01-13T14:09:30.727Z,3.17
2023-01-13T14:12:01.726Z,19.83
2023-01-13T14:14:32.567Z,1.47
2023-01-13T14:17:02.808Z,2.40
2023-01-13T14:19:34.432Z,3.90
2023-01-13T14:22:04.607Z,7.20
2023-01-13T14:24:34.147Z,5.27
2023-01-13T14:27:10.721Z,12.10
2023-01-13T14:29:39.704Z,2.67
2023-01-13T14:32:10.543Z,6.50
2023-01-13T14:34:40.078Z,17.10
2023-01-13T14:37:24.522Z,12.37
2023-01-13T14:39:53.285Z,17.50
2023-01-13T14:42:22.999Z,18.43
2023-01-13T14:45:23.202Z,9.07
2023-01-13T14:47:54.895Z,5.57
2023-01-13T14:50:29.858Z,8.80
2023-01-13T14:53:00.993Z,3.83
2023-01-13T14:55:30.489Z,2.03
2023-01-13T14:58:25.268Z,2.00
2023-01-13T15:01:29.989Z,3.00
2023-01-13T15:04:32.782Z,5.97
2023-01-13T15:07:19.175Z,2.17
2023-01-13T15:09:47.963Z,21.27
2023-01-13T15:12:22.086Z,25.50
2023-01-13T15:14:54.805Z,23.30
2023-01-13T15:17:23.189Z,29.40
2023-01-13T15:20:16.456Z,23.17
2023-01-13T15:22:45.218Z,14.33
2023-01-13T15:25:14.172Z,17.47
2023-01-13T15:27:43.505Z,56.97
2023-01-13T15:30:15.961Z,51.87
2023-01-13T15:32:45.485Z,21.60
2023-01-13T15:35:15.925Z,15.83
2023-01-13T15:37:45.160Z,14.53
2023-01-13T15:40:16.266Z,9.63
2023-01-13T15:43:02.490Z,13.87
2023-01-13T15:45:49.265Z,3.83
2023-01-13T15:48:18.440Z,12.10
2023-01-13T15:50:48.600Z,7.37
2023-01-13T15:53:17.856Z,9.60
2023-01-13T15:55:48.847Z,12.53
2023-01-13T15:58:28.150Z,24.40
2023-01-13T16:00:56.912Z,36.63
2023-01-13T16:03:25.442Z,36.87
2023-01-13T16:05:55.328Z,49.67
2023-01-13T16:08:24.818Z,36.77
2023-01-13T16:10:53.469Z,48.50
2023-01-13T16:13:22.317Z,12.27
2023-01-13T16:19:17.794Z,11.30
2023-01-13T16:21:48.181Z,4.80
2023-01-13T16:24:17.023Z,5.40
2023-01-13T16:26:45.616Z,3.80
2023-01-13T16:29:14.371Z,10.40
2023-01-13T16:31:42.911Z,2.53
2023-01-13T16:34:11.742Z,1.83
2023-01-13T16:36:40.857Z,2.30
2023-01-13T16:39:22.749Z,1.47
2023-01-13T16:41:51.898Z,2.30
2023-01-13T16:44:21.196Z,5.10
2023-01-13T16:46:50.346Z,0.90
2023-01-13T16:49:19.025Z,1.93
2023-01-13T16:51:47.579Z,6.83
2023-01-13T16:54:18.549Z,30.13
2023-01-13T16:56:47.333Z,29.30
2023-01-13T16:59:16.208Z,9.07
2023-01-13T17:01:46.284Z,12.40
2023-01-13T17:04:17.240Z,3.27
2023-01-13T17:06:52.318Z,5.60
2023-01-13T17:09:28.500Z,2.57
2023-01-13T17:11:57.453Z,2.17
2023-01-13T17:14:26.299Z,2.60
2023-01-13T17:16:57.327Z,4.20
2023-01-13T17:19:26.320Z,2.87
2023-01-13T17:21:54.946Z,2.00
2023-01-13T17:24:26.050Z,1.20
2023-01-13T17:26:54.717Z,1.57
2023-01-13T17:29:25.994Z,1.77
2023-01-13T17:31:55.008Z,0.97
2023-01-13T17:34:23.924Z,2.13
2023-01-13T17:36:52.633Z,3.13
2023-01-13T17:39:27.154Z,1.17
2023-01-13T17:41:59.396Z,0.97
2023-01-13T17:44:28.031Z,1.47
2023-01-13T17:46:57.093Z,1.00
2023-01-13T17:49:26.006Z,1.83
2023-01-13T17:51:55.242Z,2.17
2023-01-13T17:54:24.481Z,3.07
2023-01-13T17:56:53.266Z,1.13
2023-01-13T17:59:24.430Z,2.93
2023-01-13T18:01:53.573Z,14.63
2023-01-13T18:04:23.351Z,32.47
2023-01-13T18:06:52.361Z,32.37
2023-01-13T18:09:21.904Z,32.53
2023-01-13T18:11:50.886Z,42.57
2023-01-13T18:14:22.575Z,48.20
2023-01-13T18:17:18.533Z,57.33
2023-01-13T18:20:04.488Z,32.80
2023-01-13T18:22:50.261Z,40.13
2023-01-13T18:26:00.920Z,8.80
2023-01-13T18:28:29.858Z,3.77
2023-01-13T18:30:59.196Z,0.60
2023-01-13T18:33:29.269Z,7.03
2023-01-13T18:35:58.079Z,1.03
2023-01-13T18:38:26.566Z,22.63
2023-01-13T18:40:58.334Z,2.40
2023-01-13T18:43:25.935Z,3.63
2023-01-13T18:45:55.455Z,1.40
2023-01-13T18:48:34.379Z,3.43
2023-01-13T18:51:02.948Z,2.87
2023-01-13T18:53:32.679Z,1.10
2023-01-13T18:56:01.267Z,2.47
2023-01-13T18:58:33.493Z,9.80
2023-01-13T19:01:02.973Z,3.67
2023-01-13T19:03:31.653Z,1.77
2023-01-13T19:06:07.606Z,1.10
2023-01-13T19:09:08.470Z,2.90
2023-01-13T19:11:37.450Z,1.17
2023-01-13T19:14:06.574Z,2.83
2023-01-13T19:16:35.409Z,3.57
2023-01-13T19:19:06.587Z,1.20
2023-01-13T19:21:36.824Z,1.53
2023-01-13T19:24:05.686Z,1.73
2023-01-13T19:26:34.474Z,2.23
2023-01-13T19:29:05.234Z,1.83
2023-01-13T19:31:34.036Z,3.53
2023-01-13T19:34:03.242Z,1.70
2023-01-13T19:36:31.610Z,0.80
2023-01-13T19:39:01.889Z,2.63
2023-01-13T19:41:48.114Z,1.60
2023-01-13T19:44:34.243Z,7.30
2023-01-13T19:47:03.957Z,4.83
2023-01-13T19:49:32.871Z,2.63
2023-01-13T19:52:02.245Z,1.27
2023-01-13T19:54:32.255Z,1.10
2023-01-13T19:57:00.816Z,1.83
2023-01-13T19:59:30.657Z,1.57
2023-01-13T20:02:00.802Z,1.40
2023-01-13T20:04:37.885Z,1.20
2023-01-13T20:07:08.092Z,3.60
2023-01-13T20:09:38.200Z,3.23
2023-01-13T20:12:08.970Z,1.27
2023-01-13T20:14:37.891Z,1.83
2023-01-13T20:17:07.046Z,1.47
2023-01-13T20:19:36.173Z,3.20
2023-01-13T20:22:05.081Z,4.23
2023-01-13T20:24:34.519Z,2.83
2023-01-13T20:27:08.924Z,6.20
2023-01-13T20:29:37.686Z,2.77
2023-01-13T20:32:07.083Z,1.47
2023-01-13T20:34:35.836Z,1.17
2023-01-13T20:37:04.512Z,2.50
2023-01-13T20:39:33.849Z,1.43
2023-01-13T20:42:20.041Z,1.93
2023-01-13T20:44:50.169Z,4.40
2023-01-13T20:47:44.065Z,2.90
2023-01-13T20:50:13.745Z,1.43
2023-01-13T20:52:42.486Z,7.47
2023-01-13T20:55:12.488Z,4.90
2023-01-13T20:57:41.506Z,1.67
2023-01-13T21:00:18.894Z,1.47
2023-01-13T21:02:49.772Z,3.93
2023-01-13T21:05:18.609Z,3.60
2023-01-13T21:07:47.202Z,2.83
2023-01-13T21:10:16.058Z,4.63
2023-01-13T21:13:01.982Z,2.53
2023-01-13T21:15:34.489Z,2.90
2023-01-13T21:18:20.496Z,1.30
2023-01-13T21:20:50.960Z,3.33
2023-01-13T21:23:20.267Z,3.03
2023-01-13T21:25:49.006Z,1.43
2023-01-13T21:28:19.172Z,3.53
2023-01-13T21:31:03.682Z,1.77
2023-01-13T21:33:32.538Z,2.13
2023-01-13T21:36:06.453Z,1.40
2023-01-13T21:38:35.473Z,1.97
2023-01-13T21:41:16.076Z,6.73
2023-01-13T21:44:02.646Z,5.30
2023-01-13T21:46:50.574Z,5.83
2023-01-13T21:49:19.620Z,3.17
2023-01-13T21:51:48.664Z,8.97
2023-01-13T21:54:17.398Z,3.20
2023-01-13T21:56:46.046Z,5.67
2023-01-13T21:59:19.758Z,1.87
2023-01-13T22:02:32.142Z,1.53
2023-01-13T22:05:04.072Z,1.63
2023-01-13T22:07:33.843Z,2.03
2023-01-13T22:10:03.104Z,4.83
2023-01-13T22:12:31.834Z,2.77
2023-01-13T22:15:00.679Z,3.20
2023-01-13T22:17:31.885Z,2.00
2023-01-13T22:20:01.679Z,1.10
2023-01-13T22:22:36.785Z,8.13
2023-01-13T22:25:07.223Z,1.30
2023-01-13T22:27:40.454Z,2.90
2023-01-13T22:30:10.777Z,4.10
2023-01-13T22:32:49.037Z,3.93
2023-01-13T22:35:17.970Z,5.00
2023-01-13T22:37:47.739Z,2.60
2023-01-13T22:40:17.000Z,2.07
2023-01-13T22:42:48.534Z,4.67
2023-01-13T22:45:17.720Z,9.13
2023-01-13T22:47:46.314Z,5.30
2023-01-13T22:50:16.965Z,3.07
2023-01-13T22:52:48.492Z,2.87
2023-01-13T22:55:17.356Z,3.80
2023-01-13T22:57:48.531Z,42.17
2023-01-13T23:00:19.337Z,1.30
2023-01-13T23:02:48.760Z,3.43
2023-01-13T23:05:17.732Z,6.00
2023-01-13T23:07:47.891Z,3.00
2023-01-13T23:10:16.899Z,3.40
2023-01-13T23:13:10.590Z,2.50
2023-01-13T23:15:41.676Z,5.37
2023-01-13T23:18:12.814Z,5.67
2023-01-13T23:20:42.807Z,4.70
2023-01-13T23:23:13.337Z,1.13
2023-01-13T23:25:42.417Z,1.70
2023-01-13T23:28:11.055Z,1.33
2023-01-13T23:30:42.710Z,2.73
2023-01-13T23:33:11.510Z,4.87
2023-01-13T23:35:40.319Z,2.10
2023-01-13T23:38:09.146Z,1.70
2023-01-13T23:40:42.368Z,2.87
2023-01-13T23:43:11.141Z,3.40
2023-01-13T23:45:41.249Z,2.00
2023-01-13T23:48:09.792Z,1.40
2023-01-13T23:50:38.782Z,5.30
2023-01-13T23:53:07.603Z,1.10
2023-01-13T23:55:36.149Z,1.50
2023-01-13T23:58:06.423Z,3.40
